Time;durP1;ratioP1;P1;durP2;ratioP2;P2;SDS_P1;SDS_P2;PMS_P1;PMS_P2;Temp;Humidity;BMP_temperature;BMP_pressure;BME280_temperature;BME280_humidity;BME280_pressure;Samples;Min_cycle;Max_cycle;Signal;HPM_P1;HPM_P2
2021/11/15 00:00:32;;;;;;;239.40;151.52;;;154.20;2252.80;;;;;;5056343;28;20107;-80
2021/11/15 00:02:58;;;;;;;223.70;141.93;;;154.20;2252.80;;;;;;5074038;28;20462;-80
2021/11/15 00:05:24;;;;;;;222.55;142.02;;;154.00;2252.80;;;;;;5056296;28;20040;-81
2021/11/15 00:07:50;;;;;;;219.80;137.88;;;154.20;2252.80;;;;;;5055830;28;20378;-82
2021/11/15 00:10:16;;;;;;;201.27;128.38;;;154.10;2252.80;;;;;;5056098;28;20032;-79
2021/11/15 00:12:51;;;;;;;204.77;128.80;;;154.10;2252.80;;;;;;5056196;28;20432;-82
2021/11/15 00:15:17;;;;;;;253.73;148.63;;;154.10;2252.80;;;;;;5055879;28;20032;-81
2021/11/15 00:17:43;;;;;;;204.45;125.30;;;154.10;2252.80;;;;;;5056193;28;20111;-82
2021/11/15 00:20:10;;;;;;;175.43;108.22;;;153.90;2252.80;;;;;;5073691;28;20457;-83
2021/11/15 00:22:36;;;;;;;178.43;110.57;;;153.80;2252.80;;;;;;5073459;28;20031;-81
2021/11/15 00:25:04;;;;;;;202.80;118.35;;;153.80;2252.80;;;;;;5055985;28;20032;-79
2021/11/15 00:27:30;;;;;;;213.52;134.68;;;153.90;2252.80;;;;;;5055617;28;20028;-79
2021/11/15 00:29:59;;;;;;;209.93;127.22;;;154.00;2252.80;;;;;;5055923;28;20028;-80
2021/11/15 00:32:28;;;;;;;228.07;141.90;;;154.00;2252.80;;;;;;5056055;28;20028;-80
2021/11/15 00:34:54;;;;;;;231.90;145.07;;;154.00;2252.80;;;;;;5055732;28;20111;-79
2021/11/15 00:37:20;;;;;;;209.93;133.05;;;154.10;2252.80;;;;;;5073550;28;20087;-78
2021/11/15 00:39:48;;;;;;;147.20;99.38;;;154.10;2252.80;;;;;;5055827;28;20094;-79
2021/11/15 00:42:14;;;;;;;161.27;101.80;;;154.10;2252.80;;;;;;5073445;28;20032;-80
2021/11/15 00:44:40;;;;;;;153.93;104.18;;;154.00;2252.80;;;;;;5073788;28;20035;-82
2021/11/15 00:47:06;;;;;;;174.57;112.30;;;154.00;2252.80;;;;;;5073813;28;20021;-79
2021/11/15 00:49:32;;;;;;;166.95;108.65;;;154.10;2252.80;;;;;;5055658;28;20033;-79
2021/11/15 00:51:58;;;;;;;174.15;106.80;;;154.10;2252.80;;;;;;5055841;28;20039;-81
2021/11/15 00:54:24;;;;;;;161.40;105.82;;;153.90;2252.80;;;;;;5059282;28;20378;-80
2021/11/15 00:56:50;;;;;;;176.00;108.93;;;153.60;2252.80;;;;;;5059365;28;20032;-80
2021/11/15 00:59:16;;;;;;;156.68;102.35;;;153.60;2252.80;;;;;;5059711;28;20036;-81
2021/11/15 01:01:41;;;;;;;160.18;104.55;;;128.70;2252.80;;;;;;5077516;28;20032;-81
2021/11/15 01:04:08;;;;;;;145.30;94.00;;;128.40;2252.80;;;;;;5059159;28;20063;-78
2021/11/15 01:06:34;;;;;;;132.93;88.45;;;128.60;2252.80;;;;;;5077513;28;20024;-79
2021/11/15 01:09:00;;;;;;;117.75;77.20;;;128.80;2252.80;;;;;;5059629;28;20484;-80
2021/11/15 01:11:26;;;;;;;116.07;72.53;;;128.80;2252.80;;;;;;5059193;28;20059;-78
2021/11/15 01:13:52;;;;;;;102.88;67.55;;;128.80;2252.80;;;;;;5077527;28;20024;-82
2021/11/15 01:16:18;;;;;;;100.55;66.32;;;153.60;2252.80;;;;;;5059064;28;20439;-79
2021/11/15 01:18:44;;;;;;;103.32;69.38;;;153.60;2252.80;;;;;;5059332;28;20025;-79
2021/11/15 01:21:12;;;;;;;132.65;85.00;;;153.70;2252.80;;;;;;5059347;28;20082;-78
2021/11/15 01:23:39;;;;;;;126.40;82.40;;;153.60;2252.80;;;;;;5058753;28;20036;-77
2021/11/15 01:26:08;;;;;;;108.03;69.63;;;128.90;2252.80;;;;;;5059139;28;20425;-79
2021/11/15 01:28:34;;;;;;;104.00;66.32;;;128.80;2252.80;;;;;;5059108;28;20124;-80
2021/11/15 01:31:01;;;;;;;109.38;71.82;;;128.90;2252.80;;;;;;5058880;28;20465;-80
2021/11/15 01:33:27;;;;;;;101.43;62.83;;;128.80;2252.80;;;;;;5059023;28;20175;-81
2021/11/15 01:35:52;;;;;;;96.65;61.58;;;128.90;2252.80;;;;;;5058980;28;20115;-79
2021/11/15 01:38:18;;;;;;;101.00;65.97;;;128.90;2252.80;;;;;;5058438;28;20135;-80
2021/11/15 01:40:44;;;;;;;97.00;66.40;;;128.90;2252.80;;;;;;5059037;28;20422;-82
2021/11/15 01:43:10;;;;;;;94.45;57.92;;;128.90;2252.80;;;;;;5058906;28;20120;-80
2021/11/15 01:45:39;;;;;;;89.78;55.90;;;128.40;2252.80;;;;;;5058898;28;20043;-83
2021/11/15 01:48:07;;;;;;;94.25;57.88;;;128.60;2252.80;;;;;;5058862;28;20378;-80
2021/11/15 01:50:35;;;;;;;91.15;60.88;;;128.70;2252.80;;;;;;5058796;28;20031;-81
2021/11/15 01:53:03;;;;;;;93.78;61.53;;;128.80;2252.80;;;;;;5058337;28;20484;-81
2021/11/15 01:55:29;;;;;;;84.22;55.33;;;128.70;2252.80;;;;;;5076547;28;20036;-79
2021/11/15 01:57:56;;;;;;;100.35;67.40;;;128.80;2252.80;;;;;;5058220;28;20028;-77
2021/11/15 02:00:34;;;;;;;89.03;59.85;;;128.80;2252.80;;;;;;5058297;28;20052;-80
2021/11/15 02:03:00;;;;;;;83.35;56.63;;;128.70;2252.80;;;;;;5076828;28;20078;-80
2021/11/15 02:05:26;;;;;;;81.53;55.22;;;128.20;2252.80;;;;;;5057379;28;20086;-80
2021/11/15 02:07:52;;;;;;;80.47;55.25;;;128.10;2252.80;;;;;;5058361;28;20024;-79
2021/11/15 02:10:19;;;;;;;97.55;62.75;;;128.40;2252.80;;;;;;5058464;28;20032;-81
2021/11/15 02:12:45;;;;;;;93.13;59.63;;;128.50;2252.80;;;;;;5058066;28;20036;-79
2021/11/15 02:15:13;;;;;;;83.78;55.28;;;128.40;2252.80;;;;;;5058296;28;20029;-79
2021/11/15 02:17:44;;;;;;;91.20;58.33;;;128.50;2252.80;;;;;;5058365;28;20496;-79
2021/11/15 02:20:17;;;;;;;105.38;65.60;;;128.40;2252.80;;;;;;5057830;28;20063;-80
2021/11/15 02:22:43;;;;;;;86.50;54.22;;;128.30;2252.80;;;;;;5058061;28;20028;-80
2021/11/15 02:25:09;;;;;;;84.80;54.05;;;128.70;2252.80;;;;;;5058011;28;20032;-79
2021/11/15 02:27:35;;;;;;;88.85;54.90;;;128.20;2252.80;;;;;;5058063;28;20032;-81
2021/11/15 02:30:04;;;;;;;89.93;58.38;;;128.20;2252.80;;;;;;5057631;28;20028;-80
2021/11/15 02:32:31;;;;;;;99.88;66.07;;;128.30;2252.80;;;;;;5058159;28;20125;-81
2021/11/15 02:34:58;;;;;;;123.20;79.18;;;128.20;2252.80;;;;;;5057655;28;20401;-79
2021/11/15 02:37:24;;;;;;;129.38;81.90;;;128.10;2252.80;;;;;;5075841;28;20473;-79
2021/11/15 02:39:50;;;;;;;122.10;75.18;;;103.30;2227.20;;;;;;5057552;28;20454;-80
2021/11/15 02:42:17;;;;;;;116.13;74.93;;;103.30;2227.20;;;;;;5075650;28;20031;-79
2021/11/15 02:44:43;;;;;;;112.65;73.90;;;128.10;2252.80;;;;;;5057889;28;20025;-77
2021/11/15 02:47:09;;;;;;;86.85;57.72;;;128.10;2252.80;;;;;;5057604;28;20036;-80
2021/11/15 02:49:35;;;;;;;86.40;55.00;;;128.00;2252.80;;;;;;5075269;28;20029;-79
2021/11/15 02:52:00;;;;;;;111.57;66.53;;;128.10;2252.80;;;;;;5057665;28;20465;-79
2021/11/15 02:54:26;;;;;;;108.22;64.00;;;103.10;2227.20;;;;;;5057179;28;20474;-76
2021/11/15 02:56:53;;;;;;;88.53;55.75;;;103.20;2227.20;;;;;;5075393;28;20029;-78
2021/11/15 02:59:19;;;;;;;83.13;55.03;;;103.20;2227.20;;;;;;5057354;28;20035;-78
2021/11/15 03:01:46;;;;;;;92.53;54.95;;;103.10;2227.20;;;;;;5057229;28;20416;-81
2021/11/15 03:04:13;;;;;;;95.72;59.08;;;103.20;2227.20;;;;;;5057351;28;20028;-79
2021/11/15 03:06:39;;;;;;;84.00;52.22;;;103.20;2227.20;;;;;;5057421;28;20028;-79
2021/11/15 03:09:04;;;;;;;91.88;56.42;;;103.30;2227.20;;;;;;5056912;28;20027;-77
2021/11/15 03:11:31;;;;;;;79.80;51.83;;;128.00;2252.80;;;;;;5057158;28;20109;-78
2021/11/15 03:13:57;;;;;;;74.95;45.83;;;128.00;2252.80;;;;;;5075044;28;20028;-80
2021/11/15 03:16:22;;;;;;;61.67;41.03;;;103.30;2227.20;;;;;;5056837;28;20021;-81
2021/11/15 03:18:48;;;;;;;67.35;41.75;;;102.80;2227.20;;;;;;5075268;28;20032;-79
2021/11/15 03:21:23;;;;;;;81.85;48.05;;;102.90;2227.20;;;;;;5056620;28;20025;-79
2021/11/15 03:23:53;;;;;;;86.25;55.15;;;102.80;2227.20;;;;;;5056775;28;20028;-78
2021/11/15 03:26:19;;;;;;;104.07;62.83;;;102.80;2227.20;;;;;;5057298;28;20083;-80
2021/11/15 03:28:50;;;;;;;76.43;49.60;;;102.90;2227.20;;;;;;5056916;28;20024;-77
2021/11/15 03:31:18;;;;;;;67.43;42.72;;;103.00;2227.20;;;;;;5056548;28;20462;-80
2021/11/15 03:33:45;;;;;;;65.85;42.53;;;103.00;2227.20;;;;;;5056802;28;20020;-83
2021/11/15 03:36:11;;;;;;;73.45;47.38;;;103.10;2227.20;;;;;;5056570;28;20028;-82
2021/11/15 03:38:37;;;;;;;84.75;54.45;;;103.20;2227.20;;;;;;5056205;28;20086;-79
2021/11/15 03:41:04;;;;;;;103.80;60.35;;;103.10;2227.20;;;;;;5056829;28;20028;-82
2021/11/15 03:43:31;;;;;;;101.88;64.20;;;103.20;2227.20;;;;;;5056379;28;20028;-83
2021/11/15 03:45:57;;;;;;;102.38;63.53;;;103.20;2227.20;;;;;;5074996;28;20484;-82
2021/11/15 03:48:24;;;;;;;100.78;60.13;;;103.10;2227.20;;;;;;5056771;28;20021;-83
2021/11/15 03:50:54;;;;;;;116.32;66.90;;;102.90;2227.20;;;;;;5087070;28;20021;-77
2021/11/15 03:53:25;;;;;;;107.55;64.13;;;103.00;2227.20;;;;;;5076102;28;20092;-81
2021/11/15 03:55:52;;;;;;;81.15;50.55;;;103.00;2227.20;;;;;;5056182;28;20065;-81
2021/11/15 03:58:18;;;;;;;94.03;52.08;;;103.00;2227.20;;;;;;5073994;28;20366;-80
2021/11/15 04:00:44;;;;;;;68.43;43.33;;;102.90;2227.20;;;;;;5056178;28;20081;-79
2021/11/15 04:03:18;;;;;;;77.10;47.22;;;103.00;2227.20;;;;;;5056093;28;20485;-78
2021/11/15 04:05:53;;;;;;;86.40;54.60;;;102.70;2227.20;;;;;;5055946;28;20039;-79
2021/11/15 04:08:19;;;;;;;80.38;48.53;;;77.70;2227.20;;;;;;5056174;28;20025;-80
2021/11/15 04:10:45;;;;;;;80.50;47.80;;;102.50;2227.20;;;;;;5056084;28;20024;-83
2021/11/15 04:13:14;;;;;;;66.68;43.88;;;102.60;2227.20;;;;;;5055736;28;20028;-79
2021/11/15 04:15:41;;;;;;;75.65;44.35;;;102.60;2227.20;;;;;;5056017;28;20131;-79
2021/11/15 04:18:10;;;;;;;66.93;42.60;;;102.70;2227.20;;;;;;5055869;28;20028;-78
2021/11/15 04:20:37;;;;;;;81.47;48.85;;;102.80;2227.20;;;;;;5055725;28;20024;-80
2021/11/15 04:23:03;;;;;;;84.70;49.20;;;102.80;2227.20;;;;;;5055885;28;20025;-79
2021/11/15 04:25:29;;;;;;;73.70;48.13;;;102.70;2227.20;;;;;;5055686;28;20042;-81
2021/11/15 04:27:55;;;;;;;95.65;56.15;;;102.70;2227.20;;;;;;5073711;28;20025;-80
2021/11/15 04:30:21;;;;;;;92.90;57.78;;;102.80;2227.20;;;;;;5055781;28;20036;-78
2021/11/15 04:32:47;;;;;;;88.75;55.38;;;102.90;2227.20;;;;;;5055610;28;20031;-78
2021/11/15 04:35:19;;;;;;;83.10;54.15;;;102.90;2227.20;;;;;;5055706;28;20033;-81
2021/11/15 04:37:46;;;;;;;82.37;51.97;;;102.90;2227.20;;;;;;5055786;28;20120;-84
2021/11/15 04:40:12;;;;;;;88.95;57.60;;;102.90;2227.20;;;;;;5055335;28;20394;-81
2021/11/15 04:42:38;;;;;;;91.80;58.15;;;102.80;2227.20;;;;;;5055677;28;20028;-79
2021/11/15 04:45:05;;;;;;;94.03;61.83;;;102.80;2227.20;;;;;;5055644;28;20033;-79
2021/11/15 04:47:31;;;;;;;110.22;67.55;;;102.90;2227.20;;;;;;5055376;28;20029;-79
2021/11/15 04:49:57;;;;;;;121.47;75.93;;;102.80;2227.20;;;;;;5055729;28;20032;-79
2021/11/15 04:52:23;;;;;;;144.55;89.72;;;102.90;2227.20;;;;;;5073686;28;20032;-79
2021/11/15 04:54:49;;;;;;;156.02;107.43;;;102.50;2227.20;;;;;;5055380;28;20132;-83
2021/11/15 04:57:16;;;;;;;136.95;95.50;;;77.50;2227.20;;;;;;5055651;28;20486;-79
2021/11/15 04:59:42;;;;;;;130.63;87.07;;;77.50;2227.20;;;;;;5055411;28;20028;-81
2021/11/15 05:02:09;;;;;;;116.88;75.88;;;102.40;2227.20;;;;;;5055246;28;20033;-79
2021/11/15 05:04:35;;;;;;;107.28;71.00;;;102.90;2227.20;;;;;;5055696;28;20029;-79
2021/11/15 05:07:01;;;;;;;117.03;78.55;;;102.70;2227.20;;;;;;5055538;28;20056;-81
2021/11/15 05:09:27;;;;;;;98.47;69.13;;;102.60;2227.20;;;;;;5055360;28;20051;-81
2021/11/15 05:11:52;;;;;;;93.70;66.55;;;77.70;2227.20;;;;;;5055596;28;20024;-78
2021/11/15 05:14:18;;;;;;;78.95;57.25;;;77.60;2227.20;;;;;;5073240;28;20162;-79
2021/11/15 05:16:44;;;;;;;101.10;69.03;;;77.40;2227.20;;;;;;5055510;28;20081;-81
2021/11/15 05:19:10;;;;;;;97.25;63.45;;;77.30;2227.20;;;;;;5055466;28;20480;-82
2021/11/15 05:21:36;;;;;;;100.88;69.15;;;77.60;2227.20;;;;;;5055163;28;20021;-82
2021/11/15 05:24:02;;;;;;;131.80;79.38;;;77.70;2227.20;;;;;;5055335;28;20028;-81
2021/11/15 05:26:28;;;;;;;147.90;91.25;;;102.40;2227.20;;;;;;5073429;28;20028;-81
2021/11/15 05:28:54;;;;;;;143.18;87.03;;;102.40;2227.20;;;;;;5072910;28;20112;-79
2021/11/15 05:31:20;;;;;;;132.13;80.60;;;102.50;2227.20;;;;;;5055036;28;20115;-80
2021/11/15 05:33:46;;;;;;;131.13;84.15;;;102.70;2227.20;;;;;;5073215;28;20020;-80
2021/11/15 05:36:13;;;;;;;151.75;97.60;;;102.60;2227.20;;;;;;5054758;28;20444;-80
2021/11/15 05:38:39;;;;;;;125.90;84.68;;;102.50;2227.20;;;;;;5072878;28;20076;-81
2021/11/15 05:41:05;;;;;;;92.75;56.53;;;77.70;2227.20;;;;;;5057939;28;20079;-80
2021/11/15 05:43:30;;;;;;;94.45;57.53;;;77.70;2227.20;;;;;;5058692;28;20026;-80
2021/11/15 05:45:56;;;;;;;110.57;63.10;;;77.50;2227.20;;;;;;5058995;28;20098;-80
2021/11/15 05:48:22;;;;;;;139.50;78.60;;;77.50;2227.20;;;;;;5058739;28;20082;-79
2021/11/15 05:50:49;;;;;;;157.13;88.95;;;77.50;2227.20;;;;;;5076452;28;20024;-82
2021/11/15 05:53:16;;;;;;;151.20;86.45;;;77.50;2227.20;;;;;;5058561;28;20020;-79
2021/11/15 05:55:42;;;;;;;132.90;73.85;;;77.30;2227.20;;;;;;5058560;28;20071;-78
2021/11/15 05:58:08;;;;;;;119.97;71.40;;;77.20;2227.20;;;;;;5058233;28;20119;-79
2021/11/15 06:00:34;;;;;;;130.63;75.95;;;77.40;2227.20;;;;;;5058684;28;20500;-77
2021/11/15 06:03:00;;;;;;;160.05;87.65;;;77.40;2227.20;;;;;;5058522;28;20021;-80
2021/11/15 06:05:27;;;;;;;277.52;164.43;;;77.20;2227.20;;;;;;5057987;28;20035;-79
2021/11/15 06:07:55;;;;;;;161.20;95.95;;;77.10;2227.20;;;;;;5058366;28;20380;-79
2021/11/15 06:10:22;;;;;;;157.43;99.45;;;77.20;2227.20;;;;;;5058189;28;20029;-80
2021/11/15 06:12:48;;;;;;;122.13;78.55;;;77.30;2227.20;;;;;;5058221;28;20021;-79
2021/11/15 06:15:16;;;;;;;103.15;61.05;;;77.20;2227.20;;;;;;5058217;28;20036;-78
2021/11/15 06:17:43;;;;;;;155.30;89.50;;;77.40;2227.20;;;;;;5075592;28;20021;-79
2021/11/15 06:20:10;;;;;;;207.60;122.20;;;77.50;2227.20;;;;;;5058214;28;20029;-78
2021/11/15 06:22:36;;;;;;;200.20;117.28;;;77.70;2227.20;;;;;;5057977;28;20027;-82
2021/11/15 06:25:03;;;;;;;150.15;89.38;;;77.30;2227.20;;;;;;5057908;28;20028;-79
2021/11/15 06:27:29;;;;;;;151.30;86.10;;;77.20;2227.20;;;;;;5058140;28;20124;-81
2021/11/15 06:29:55;;;;;;;157.60;88.15;;;77.40;2227.20;;;;;;5058038;28;20055;-81
2021/11/15 06:32:21;;;;;;;303.13;145.48;;;77.60;2227.20;;;;;;5057638;28;20021;-81
2021/11/15 06:34:46;;;;;;;257.38;147.27;;;77.70;2227.20;;;;;;5057927;28;20060;-78
2021/11/15 06:37:13;;;;;;;244.40;142.05;;;77.70;2227.20;;;;;;5057664;28;20084;-79
2021/11/15 06:39:39;;;;;;;235.75;132.88;;;102.50;2227.20;;;;;;5075186;28;20083;-82
2021/11/15 06:42:05;;;;;;;195.77;118.78;;;102.50;2227.20;;;;;;5075563;28;20060;-78
2021/11/15 06:44:31;;;;;;;177.77;107.43;;;102.40;2227.20;;;;;;5057722;28;20074;-81
2021/11/15 06:46:58;;;;;;;155.10;94.47;;;102.60;2227.20;;;;;;5057604;28;20032;-80
2021/11/15 06:49:25;;;;;;;125.90;77.75;;;102.60;2227.20;;;;;;5057725;28;20031;-80
2021/11/15 06:51:51;;;;;;;148.77;84.05;;;102.60;2227.20;;;;;;5057389;28;20059;-80
2021/11/15 06:54:17;;;;;;;162.25;96.82;;;102.70;2227.20;;;;;;5057224;28;20052;-80
2021/11/15 06:56:44;;;;;;;214.07;125.70;;;102.80;2227.20;;;;;;5057683;28;20538;-79
2021/11/15 06:59:09;;;;;;;213.20;124.30;;;102.80;2227.20;;;;;;5075711;28;20065;-81
2021/11/15 07:01:38;;;;;;;209.10;121.63;;;102.70;2227.20;;;;;;5057144;28;20119;-80
2021/11/15 07:04:05;;;;;;;208.55;130.60;;;102.80;2227.20;;;;;;5057394;28;20028;-80
2021/11/15 07:06:31;;;;;;;231.25;149.82;;;103.00;2227.20;;;;;;5057134;28;20140;-80
2021/11/15 07:08:57;;;;;;;284.67;178.57;;;103.00;2227.20;;;;;;5057310;28;20461;-79
2021/11/15 07:11:23;;;;;;;307.73;187.02;;;103.10;2227.20;;;;;;5057195;28;20079;-81
2021/11/15 07:13:49;;;;;;;297.33;180.40;;;103.00;2227.20;;;;;;5074923;28;20028;-82
2021/11/15 07:16:15;;;;;;;246.50;148.25;;;102.80;2227.20;;;;;;5074959;28;20115;-80
2021/11/15 07:18:42;;;;;;;220.55;136.15;;;102.80;2227.20;;;;;;5057095;28;20063;-83
2021/11/15 07:21:08;;;;;;;221.43;138.82;;;102.50;2227.20;;;;;;5057242;28;20484;-82
2021/11/15 07:23:34;;;;;;;180.13;112.53;;;102.60;2227.20;;;;;;5074915;28;20029;-82
2021/11/15 07:26:00;;;;;;;180.63;117.85;;;102.70;2227.20;;;;;;5057252;28;20031;-84
2021/11/15 07:28:26;;;;;;;154.27;94.82;;;102.70;2227.20;;;;;;5075219;28;20024;-85
2021/11/15 07:30:55;;;;;;;117.55;74.30;;;102.70;2227.20;;;;;;5057469;28;20087;-85
2021/11/15 07:33:26;;;;;;;113.35;75.95;;;102.60;2227.20;;;;;;5075585;28;20021;-88
2021/11/15 07:35:52;;;;;;;123.57;80.38;;;102.70;2227.20;;;;;;5057691;28;20051;-85
2021/11/15 07:38:19;;;;;;;117.68;78.40;;;102.90;2227.20;;;;;;5074736;28;20051;-82
2021/11/15 07:40:45;;;;;;;114.53;72.40;;;102.90;2227.20;;;;;;5056957;28;20032;-82
2021/11/15 07:43:11;;;;;;;101.20;65.43;;;102.90;2227.20;;;;;;5074864;28;20025;-81
2021/11/15 07:45:37;;;;;;;105.80;70.15;;;102.90;2227.20;;;;;;5061554;28;20015;-87
2021/11/15 07:48:04;;;;;;;109.68;69.95;;;103.00;2227.20;;;;;;5080926;28;20016;-83
2021/11/15 07:50:29;;;;;;;100.43;65.70;;;103.00;2227.20;;;;;;5078893;28;20104;-82
2021/11/15 07:52:55;;;;;;;99.22;68.50;;;103.00;2227.20;;;;;;5056527;28;20478;-82
2021/11/15 07:55:21;;;;;;;103.38;66.13;;;103.00;2227.20;;;;;;5056129;28;20039;-83
2021/11/15 07:57:47;;;;;;;107.47;71.20;;;103.20;2227.20;;;;;;5074436;28;20020;-80
2021/11/15 08:00:20;;;;;;;103.85;66.65;;;103.10;2227.20;;;;;;5056505;28;20447;-82
2021/11/15 08:02:47;;;;;;;99.47;66.22;;;103.20;2227.20;;;;;;5055496;28;20419;-83
2021/11/15 08:05:15;;;;;;;106.03;73.82;;;103.20;2227.20;;;;;;5056293;28;20037;-85
2021/11/15 08:07:41;;;;;;;107.40;67.82;;;103.30;2227.20;;;;;;5056337;28;20035;-84
2021/11/15 08:10:10;;;;;;;116.68;72.55;;;103.20;2227.20;;;;;;5056072;28;20024;-83
2021/11/15 08:12:41;;;;;;;116.82;76.10;;;103.30;2227.20;;;;;;5074037;28;20029;-80
2021/11/15 08:15:09;;;;;;;127.63;81.18;;;128.00;2252.80;;;;;;5056250;28;20033;-82
2021/11/15 08:17:39;;;;;;;181.05;115.38;;;128.30;2252.80;;;;;;5073707;28;20021;-84
2021/11/15 08:20:07;;;;;;;191.25;126.40;;;128.40;2252.80;;;;;;5056024;28;20090;-80
2021/11/15 08:22:33;;;;;;;228.68;145.68;;;128.40;2252.80;;;;;;5074036;28;20028;-82
2021/11/15 08:24:59;;;;;;;200.18;131.80;;;128.40;2252.80;;;;;;5055803;28;20389;-78
2021/11/15 08:27:25;;;;;;;194.68;130.35;;;128.40;2252.80;;;;;;5056044;28;20021;-80
2021/11/15 08:29:51;;;;;;;185.65;121.22;;;128.30;2252.80;;;;;;5056084;28;20029;-82
2021/11/15 08:32:24;;;;;;;173.80;111.78;;;128.50;2252.80;;;;;;5073923;28;20094;-79
2021/11/15 08:34:50;;;;;;;;;;;128.60;2252.80;;;;;;5056447;28;20064;-83
2021/11/15 08:37:16;;;;;;;129.43;83.20;;;128.40;2252.80;;;;;;5055605;28;19912;-81
2021/11/15 08:39:42;;;;;;;142.63;95.63;;;128.60;2252.80;;;;;;5052207;28;20053;-77
2021/11/15 08:42:09;;;;;;;147.32;98.28;;;128.40;2252.80;;;;;;5054185;28;20029;-80
2021/11/15 08:44:40;;;;;;;160.25;109.47;;;128.30;2252.80;;;;;;5052127;28;20128;-84
2021/11/15 08:47:05;;;;;;;162.60;99.57;;;128.60;2252.80;;;;;;5052489;28;20159;-81
2021/11/15 08:49:35;;;;;;;150.77;100.75;;;128.70;2252.80;;;;;;5052163;28;20049;-81
2021/11/15 08:52:04;;;;;;;172.25;115.80;;;128.80;2252.80;;;;;;5052476;28;20021;-83
2021/11/15 08:54:30;;;;;;;176.48;123.35;;;128.90;2252.80;;;;;;5052038;28;20041;-79
2021/11/15 08:57:02;;;;;;;196.80;133.13;;;153.60;2252.80;;;;;;5052407;28;20025;-80
2021/11/15 08:59:28;;;;;;;180.75;119.50;;;153.70;2252.80;;;;;;5052415;28;20025;-79
2021/11/15 09:01:55;;;;;;;185.27;122.00;;;153.70;2252.80;;;;;;5052555;28;20485;-80
2021/11/15 09:04:20;;;;;;;162.75;109.03;;;153.60;2252.80;;;;;;5052227;28;20028;-80
2021/11/15 09:06:47;;;;;;;196.23;131.35;;;153.60;2252.80;;;;;;5053092;28;20025;-76
2021/11/15 09:09:15;;;;;;;192.15;128.23;;;153.70;2252.80;;;;;;5052209;28;20025;-77
2021/11/15 09:11:49;;;;;;;197.18;136.45;;;153.90;2252.80;;;;;;5052365;28;20045;-80
2021/11/15 09:14:17;;;;;;;218.70;148.20;;;154.00;2252.80;;;;;;5053569;28;20536;-78
2021/11/15 09:16:43;;;;;;;250.00;163.48;;;154.10;2252.80;;;;;;5055965;28;20036;-78
2021/11/15 09:19:10;;;;;;;228.70;150.82;;;154.00;2252.80;;;;;;5056113;28;20029;-77
2021/11/15 09:21:36;;;;;;;236.43;158.70;;;154.10;2252.80;;;;;;5055870;28;20025;-79
2021/11/15 09:24:03;;;;;;;230.88;152.13;;;154.20;2252.80;;;;;;5056098;28;20166;-79
2021/11/15 09:26:29;;;;;;;239.45;168.52;;;154.40;2252.80;;;;;;5055717;28;20040;-79
2021/11/15 09:28:58;;;;;;;235.77;165.13;;;154.40;2252.80;;;;;;5055951;28;20029;-79
2021/11/15 09:31:24;;;;;;;209.52;142.40;;;154.40;2252.80;;;;;;5055799;28;20060;-79
2021/11/15 09:33:51;;;;;;;192.68;132.18;;;154.30;2252.80;;;;;;5055513;28;20059;-79
2021/11/15 09:36:22;;;;;;;191.40;130.60;;;154.30;2252.80;;;;;;5055577;28;20033;-79
2021/11/15 09:38:48;;;;;;;229.02;151.63;;;154.40;2252.80;;;;;;5058922;28;20044;-78
2021/11/15 09:41:14;;;;;;;215.73;148.70;;;154.40;2252.80;;;;;;5058564;28;20351;-78
2021/11/15 09:43:40;;;;;;;206.60;135.80;;;154.40;2252.80;;;;;;5059021;28;20032;-80
2021/11/15 09:46:07;;;;;;;199.77;135.57;;;154.40;2252.80;;;;;;5076655;28;20035;-82
2021/11/15 09:48:36;;;;;;;183.18;127.70;;;179.20;2252.80;;;;;;5077002;28;20035;-78
2021/11/15 09:51:03;;;;;;;230.35;154.93;;;179.30;2252.80;;;;;;5058755;28;20057;-79
2021/11/15 09:53:29;;;;;;;271.63;185.98;;;179.40;2252.80;;;;;;5076670;28;20025;-80
2021/11/15 09:55:55;;;;;;;257.45;178.70;;;179.50;2252.80;;;;;;5058320;28;20539;-80
2021/11/15 09:58:22;;;;;;;221.27;157.73;;;179.50;2252.80;;;;;;5076578;28;20028;-78
2021/11/15 10:00:49;;;;;;;230.93;153.63;;;179.60;2252.80;;;;;;5058791;28;20029;-78
2021/11/15 10:03:16;;;;;;;230.80;152.98;;;179.70;2252.80;;;;;;5058490;28;20031;-80
2021/11/15 10:05:44;;;;;;;224.32;151.05;;;179.80;2252.80;;;;;;5058514;28;20029;-80
2021/11/15 10:08:12;;;;;;;189.48;134.13;;;179.90;2252.80;;;;;;5058417;28;20484;-81
2021/11/15 10:11:10;;;;;;;170.10;115.80;;;179.90;2252.80;;;;;;5058495;28;20066;-80
2021/11/15 10:13:35;;;;;;;142.30;101.50;;;180.00;2252.80;;;;;;5003960;28;20033;-80
2021/11/15 10:16:06;;;;;;;152.20;103.97;;;180.00;2252.80;;;;;;5075794;28;20025;-85
2021/11/15 10:18:53;;;;;;;124.90;89.30;;;180.10;2252.80;;;;;;5076331;28;20479;-79
2021/11/15 10:21:30;;;;;;;130.48;88.03;;;180.10;2252.80;;;;;;5058033;28;20028;-83
2021/11/15 10:24:01;;;;;;;124.78;86.03;;;204.80;2252.80;;;;;;5058137;28;20056;-81
2021/11/15 10:26:30;;;;;;;103.18;73.70;;;204.90;2252.80;;;;;;5057346;28;20086;-79
2021/11/15 10:29:10;;;;;;;98.15;71.05;;;205.00;2252.80;;;;;;5058131;28;20036;-79
2021/11/15 10:31:50;;;;;;;110.68;77.78;;;205.20;2252.80;;;;;;5057993;28;20021;-78
2021/11/15 10:34:28;;;;;;;101.60;73.75;;;205.20;2252.80;;;;;;5076261;28;20028;-78
2021/11/15 10:40:27;;;;;;;117.85;77.60;;;204.90;2252.80;;;;;;6031217;23;20135;-81
2021/11/15 10:46:34;;;;;;;115.88;79.07;;;205.50;2252.80;;;;;;4997274;28;20041;-77
2021/11/15 10:49:02;;;;;;;94.63;67.75;;;205.70;2252.80;;;;;;5000205;28;20033;-79
2021/11/15 10:52:03;;;;;;;87.93;63.53;;;230.40;2252.80;;;;;;5012369;28;20033;-82
2021/11/15 10:55:04;;;;;;;63.45;48.63;;;230.60;2252.80;;;;;;4997561;28;20034;-81
2021/11/15 10:57:38;;;;;;;58.75;38.78;;;230.80;2252.80;;;;;;5013185;28;20490;-78
2021/11/15 11:00:12;;;;;;;49.65;34.33;;;230.90;2252.80;;;;;;4993796;28;20029;-84
2021/11/15 11:02:47;;;;;;;52.55;35.58;;;230.90;2252.80;;;;;;5012217;28;20030;-83
2021/11/15 11:05:25;;;;;;;42.80;28.95;;;231.10;2252.80;;;;;;5013258;28;20149;-82
2021/11/15 11:08:11;;;;;;;57.55;43.17;;;231.10;2252.80;;;;;;5014373;28;20030;-85
2021/11/15 11:11:09;;;;;;;55.92;43.20;;;256.00;2252.80;;;;;;4996054;28;20056;-78
2021/11/15 11:13:59;;;;;;;51.75;35.33;;;256.30;2252.80;;;;;;5012879;28;20061;-81
2021/11/15 11:16:47;;;;;;;50.17;35.88;;;256.90;2252.80;;;;;;5012434;28;20735;-84
2021/11/15 11:26:39;;;;;;;52.83;37.75;;;282.40;2278.40;;;;;;5013737;28;20112;-88
2021/11/15 11:29:22;;;;;;;53.03;39.60;;;282.50;2278.40;;;;;;5012741;28;20026;-87
2021/11/15 11:31:52;;;;;;;58.35;36.90;;;307.20;2304.00;;;;;;5012041;28;20566;-88
2021/11/15 11:34:19;;;;;;;46.25;34.40;;;307.30;2304.00;;;;;;5012840;28;20041;-85
2021/11/15 11:36:45;;;;;;;40.92;29.90;;;307.60;2304.00;;;;;;5012240;28;20030;-89
2021/11/15 11:39:13;;;;;;;46.63;31.85;;;307.70;2304.00;;;;;;5010940;28;20115;-80
2021/11/15 11:41:50;;;;;;;44.60;31.30;;;307.70;2304.00;;;;;;5019424;28;20057;-82
2021/11/15 11:44:16;;;;;;;41.33;29.70;;;308.00;2304.00;;;;;;5016170;28;20056;-83
2021/11/15 11:46:42;;;;;;;45.25;33.75;;;308.00;2304.00;;;;;;5012306;28;20117;-80
2021/11/15 11:49:17;;;;;;;44.63;32.33;;;308.10;2304.00;;;;;;5012555;28;20049;-83
2021/11/15 11:51:46;;;;;;;49.25;34.47;;;308.10;2304.00;;;;;;5012292;28;20081;-83
2021/11/15 11:54:20;;;;;;;42.08;30.48;;;332.80;2329.60;;;;;;5013596;28;20113;-85
2021/11/15 11:57:03;;;;;;;49.10;33.38;;;332.90;2329.60;;;;;;5012494;28;20030;-83
2021/11/15 11:59:31;;;;;;;55.05;37.13;;;333.00;2329.60;;;;;;5012268;28;20030;-86
2021/11/15 12:02:07;;;;;;;53.47;37.88;;;333.20;2329.60;;;;;;5011970;28;20041;-83
2021/11/15 12:04:45;;;;;;;51.53;36.58;;;333.20;2329.60;;;;;;5002067;28;20037;-86
2021/11/15 12:07:38;;;;;;;49.38;35.08;;;333.20;2329.60;;;;;;4998479;28;20026;-85
2021/11/15 12:10:14;;;;;;;42.13;31.05;;;333.30;2329.60;;;;;;5001274;28;20096;-84